Time;durP1;ratioP1;P1;durP2;ratioP2;P2;SDS_P1;SDS_P2;PMS_P1;PMS_P2;Temp;Humidity;BMP_temperature;BMP_pressure;BME280_temperature;BME280_humidity;BME280_pressure;Samples;Min_cycle;Max_cycle;Signal;HPM_P1;HPM_P2
2021/07/17 00:01:15;;;;;;;6.05;3.28;;;;;;;29.62;41.12;100362.13;144994;597;5002;-86
2021/07/17 00:03:41;;;;;;;6.95;3.47;;;;;;;29.59;40.96;100357.84;144994;613;5002;-86
2021/07/17 00:06:08;;;;;;;3.60;3.10;;;;;;;29.57;41.00;100361.53;144994;592;5002;-85
2021/07/17 00:08:34;;;;;;;7.82;3.33;;;;;;;29.56;41.72;100357.12;144994;653;5002;-86
2021/07/17 00:11:02;;;;;;;5.12;3.33;;;;;;;29.60;41.33;100348.00;144994;578;5002;-86
2021/07/17 00:13:29;;;;;;;3.40;3.05;;;;;;;29.56;41.19;100357.12;144994;573;5002;-86
2021/07/17 00:15:56;;;;;;;6.53;3.40;;;;;;;29.57;40.91;100357.03;144994;586;5002;-87
2021/07/17 00:18:23;;;;;;;4.65;3.03;;;;;;;29.57;41.13;100357.03;144994;642;5002;-87
2021/07/17 00:20:50;;;;;;;8.13;3.28;;;;;;;29.58;41.59;100358.78;144994;565;5002;-85
2021/07/17 00:23:46;;;;;;;6.45;3.30;;;;;;;29.62;40.84;100355.00;144994;593;5002;-84
2021/07/17 00:26:13;;;;;;;5.85;3.30;;;;;;;29.69;40.67;100349.31;144994;567;5004;-85
2021/07/17 00:28:58;;;;;;;6.25;3.33;;;;;;;29.75;41.08;100354.28;144993;561;5005;-87
2021/07/17 00:31:32;;;;;;;6.45;3.28;;;;;;;29.79;40.25;100361.22;144994;579;5002;-85
2021/07/17 00:33:58;;;;;;;5.68;3.22;;;;;;;29.87;40.44;100350.94;144993;569;4567;-87
2021/07/17 00:36:25;;;;;;;6.25;3.20;;;;;;;29.92;40.49;100345.34;144994;610;4573;-87
2021/07/17 00:38:52;;;;;;;4.28;3.00;;;;;;;29.94;40.33;100338.09;144992;616;6002;-87
2021/07/17 00:41:18;;;;;;;6.60;3.47;;;;;;;29.94;40.07;100340.75;144992;628;6002;-86
2021/07/17 00:43:45;;;;;;;6.03;3.42;;;;;;;29.93;40.04;100339.06;144992;566;6002;-86
2021/07/17 00:46:11;;;;;;;5.00;3.12;;;;;;;29.91;39.95;100333.78;144992;647;6002;-86
2021/07/17 00:48:38;;;;;;;17.00;4.18;;;;;;;29.87;40.05;100331.38;144992;649;6002;-85
2021/07/17 00:51:06;;;;;;;5.93;3.60;;;;;;;29.87;39.54;100326.03;144992;578;6002;-87
2021/07/17 00:53:32;;;;;;;4.68;3.12;;;;;;;29.85;40.32;100323.44;144991;569;6002;-86
2021/07/17 00:56:00;;;;;;;4.53;3.15;;;;;;;29.83;40.14;100323.53;144992;631;6002;-84
2021/07/17 00:58:30;;;;;;;9.75;3.37;;;;;;;29.80;40.08;100326.38;144992;705;6002;-85
2021/07/17 01:00:58;;;;;;;4.82;3.40;;;;;;;29.80;39.90;100322.84;144992;564;6002;-87
2021/07/17 01:03:27;;;;;;;4.15;3.20;;;;;;;29.78;40.26;100324.69;144992;595;6002;-87
2021/07/17 01:05:55;;;;;;;4.53;3.00;;;;;;;29.77;39.92;100321.16;144992;613;6002;-87
2021/07/17 01:08:22;;;;;;;6.75;3.55;;;;;;;29.77;39.98;100321.16;144991;589;6002;-88
2021/07/17 01:10:48;;;;;;;5.53;3.12;;;;;;;29.79;39.31;100315.75;144992;626;6002;-86
2021/07/17 01:13:15;;;;;;;6.87;3.33;;;;;;;29.81;39.30;100316.53;144992;638;6002;-86
2021/07/17 01:15:42;;;;;;;6.78;3.35;;;;;;;29.82;39.58;100318.25;144992;624;6002;-86
2021/07/17 01:18:08;;;;;;;5.18;3.50;;;;;;;29.81;39.29;100319.19;144992;595;6002;-86
2021/07/17 01:20:37;;;;;;;6.93;3.60;;;;;;;29.80;39.38;100314.81;144992;563;6002;-87
2021/07/17 01:23:04;;;;;;;4.45;3.30;;;;;;;29.78;38.99;100312.19;144992;579;6002;-87
2021/07/17 01:25:34;;;;;;;4.60;3.08;;;;;;;29.76;39.32;100318.56;144992;590;6002;-86
2021/07/17 01:28:01;;;;;;;6.68;3.70;;;;;;;29.67;39.04;100311.94;144992;625;6002;-88
2021/07/17 01:30:32;;;;;;;4.62;3.12;;;;;;;29.65;39.20;100313.81;144992;611;6002;-88
2021/07/17 01:32:59;;;;;;;6.12;3.50;;;;;;;29.61;39.35;100313.12;144992;729;6002;-88
2021/07/17 01:35:25;;;;;;;4.20;3.03;;;;;;;29.61;39.20;100313.12;144992;595;6002;-87
2021/07/17 01:37:52;;;;;;;5.25;3.25;;;;;;;29.61;38.78;100309.62;144992;752;6002;-85
2021/07/17 01:40:19;;;;;;;4.28;3.05;;;;;;;29.60;39.35;100314.06;144992;569;6002;-85
2021/07/17 01:42:51;;;;;;;7.18;3.33;;;;;;;29.62;38.71;100309.53;144992;597;6002;-87
2021/07/17 01:45:39;;;;;;;5.47;3.40;;;;;;;29.63;39.29;100311.22;144992;613;6002;-85
2021/07/17 01:48:07;;;;;;;7.12;3.28;;;;;;;29.63;39.05;100310.38;144992;582;6002;-86
2021/07/17 01:50:36;;;;;;;8.18;3.70;;;;;;;29.62;38.86;100316.66;144992;583;6002;-85
2021/07/17 01:53:04;;;;;;;7.57;3.97;;;;;;;29.59;38.88;100307.03;144992;564;6002;-86
2021/07/17 01:55:31;;;;;;;6.87;3.60;;;;;;;29.59;39.19;100304.34;144992;565;6002;-86
2021/07/17 01:57:58;;;;;;;7.70;3.70;;;;;;;29.58;39.33;100307.97;144992;569;6002;-87
2021/07/17 02:00:25;;;;;;;5.78;3.70;;;;;;;29.58;39.10;100310.63;144992;693;6002;-87
2021/07/17 02:02:52;;;;;;;5.90;3.50;;;;;;;29.57;39.56;100308.06;144992;569;6002;-85
2021/07/17 02:05:20;;;;;;;4.45;3.50;;;;;;;29.55;39.51;100316.16;144992;576;6002;-87
2021/07/17 02:07:47;;;;;;;5.60;3.78;;;;;;;29.54;39.35;100313.56;144992;570;6002;-87
2021/07/17 02:10:19;;;;;;;8.68;3.60;;;;;;;29.54;39.62;100308.22;144992;569;6002;-85
2021/07/17 02:13:11;;;;;;;6.60;3.60;;;;;;;29.52;39.20;100312.81;144992;642;6002;-88
2021/07/17 02:15:49;;;;;;;7.00;3.60;;;;;;;29.49;39.67;100305.81;144991;568;6000;-86
2021/07/17 02:18:27;;;;;;;5.05;3.78;;;;;;;29.49;39.46;100303.12;144992;595;6002;-84
2021/07/17 02:20:54;;;;;;;5.00;3.87;;;;;;;29.49;39.30;100309.34;144992;666;6002;-85
2021/07/17 02:23:21;;;;;;;6.22;3.85;;;;;;;29.48;39.84;100302.28;144992;592;6002;-85
2021/07/17 02:25:58;;;;;;;8.40;3.90;;;;;;;29.48;39.87;100306.78;144991;598;6002;-86
2021/07/17 02:28:30;;;;;;;6.93;4.07;;;;;;;29.51;40.11;100295.03;144992;612;6002;-90
2021/07/17 02:30:57;;;;;;;6.47;3.83;;;;;;;29.54;39.57;100298.41;144992;573;6002;-86
2021/07/17 02:33:23;;;;;;;6.75;3.58;;;;;;;29.57;40.01;100298.19;144992;674;6002;-87
2021/07/17 02:35:50;;;;;;;7.00;3.45;;;;;;;29.57;39.62;100302.69;144992;572;6002;-85
2021/07/17 02:38:17;;;;;;;6.95;3.67;;;;;;;29.57;39.82;100295.53;144992;666;6002;-87
2021/07/17 02:40:44;;;;;;;5.60;3.37;;;;;;;29.57;39.52;100300.88;144992;576;6002;-86
2021/07/17 02:43:11;;;;;;;5.90;3.95;;;;;;;29.54;39.90;100298.41;144992;637;6003;-86
2021/07/17 02:45:38;;;;;;;4.55;4.05;;;;;;;29.53;39.72;100299.34;144992;569;6002;-88
2021/07/17 02:48:05;;;;;;;8.13;4.20;;;;;;;29.48;39.61;100296.06;144992;613;6002;-86
2021/07/17 02:50:32;;;;;;;6.53;3.70;;;;;;;29.46;39.27;100300.63;144992;573;6002;-87
2021/07/17 02:52:59;;;;;;;5.30;3.42;;;;;;;29.43;39.39;100299.00;144992;580;6002;-85
2021/07/17 02:55:26;;;;;;;6.25;3.37;;;;;;;29.30;39.55;100309.50;144992;573;6002;-87
2021/07/17 02:57:52;;;;;;;6.55;3.42;;;;;;;29.25;39.12;100306.19;144992;569;6002;-87
2021/07/17 03:00:18;;;;;;;6.65;3.35;;;;;;;29.23;39.14;100301.91;144992;657;6002;-86
2021/07/17 03:02:45;;;;;;;5.93;3.37;;;;;;;29.22;39.50;100298.34;144992;599;6002;-85
2021/07/17 03:05:12;;;;;;;5.00;3.40;;;;;;;29.22;39.31;100295.69;144992;563;6002;-87
2021/07/17 03:07:39;;;;;;;5.20;3.37;;;;;;;29.19;39.02;100293.22;144992;588;6002;-86
2021/07/17 03:10:06;;;;;;;5.25;3.42;;;;;;;29.19;38.79;100295.88;144992;632;6002;-85
2021/07/17 03:12:33;;;;;;;8.95;3.50;;;;;;;29.18;38.89;100303.94;144992;639;6002;-88
2021/07/17 03:14:59;;;;;;;5.03;3.33;;;;;;;29.18;38.93;100299.44;144992;593;6002;-87
2021/07/17 03:17:26;;;;;;;7.40;3.75;;;;;;;29.18;38.85;100295.94;144992;573;6002;-85
2021/07/17 03:19:52;;;;;;;10.32;3.90;;;;;;;29.18;38.82;100303.94;144992;609;6002;-87
2021/07/17 03:22:19;;;;;;;6.28;3.30;;;;;;;29.16;38.94;100303.16;144992;575;6002;-86
2021/07/17 03:24:45;;;;;;;8.65;3.35;;;;;;;29.16;38.31;100306.69;144992;563;6002;-86
2021/07/17 03:27:12;;;;;;;6.80;3.50;;;;;;;29.14;38.51;100305.91;144992;583;6002;-87
2021/07/17 03:29:38;;;;;;;8.13;3.87;;;;;;;29.14;38.54;100311.25;144992;586;6002;-86
2021/07/17 03:32:05;;;;;;;10.50;3.85;;;;;;;29.12;38.42;100315.81;144992;667;6002;-85
2021/07/17 03:34:32;;;;;;;8.43;3.50;;;;;;;29.10;38.71;100321.25;144992;595;6002;-86
2021/07/17 03:36:58;;;;;;;6.50;3.90;;;;;;;29.11;38.73;100322.09;144992;595;6002;-86
2021/07/17 03:39:25;;;;;;;11.93;4.32;;;;;;;29.11;38.52;100322.09;144992;572;6002;-86
2021/07/17 03:41:54;;;;;;;8.68;4.57;;;;;;;29.11;38.73;100324.78;144991;571;6002;-86
2021/07/17 03:44:24;;;;;;;7.60;4.12;;;;;;;29.05;39.13;100320.62;144992;605;6002;-88
2021/07/17 03:46:52;;;;;;;10.85;4.40;;;;;;;29.03;39.42;100318.97;144992;574;6002;-86
2021/07/17 03:49:19;;;;;;;7.07;3.97;;;;;;;29.03;39.28;100322.53;144991;589;6002;-86
2021/07/17 03:51:45;;;;;;;9.48;4.20;;;;;;;29.04;39.32;100320.72;144992;579;6002;-86
2021/07/17 03:54:11;;;;;;;6.07;4.32;;;;;;;29.05;39.45;100322.41;144992;575;6002;-86
2021/07/17 03:56:38;;;;;;;5.60;3.58;;;;;;;29.05;39.02;100327.78;144992;655;6002;-85
2021/07/17 03:59:04;;;;;;;7.53;3.85;;;;;;;29.04;39.29;100323.38;144992;632;6002;-89
2021/07/17 04:01:31;;;;;;;12.50;4.03;;;;;;;29.03;39.26;100321.66;144992;563;6002;-89
2021/07/17 04:03:57;;;;;;;6.70;3.78;;;;;;;29.06;39.18;100324.16;144992;569;6002;-87
2021/07/17 04:06:33;;;;;;;7.60;3.65;;;;;;;29.09;39.25;100324.84;144992;596;6002;-89
2021/07/17 04:09:10;;;;;;;9.00;3.85;;;;;;;29.17;39.34;100316.41;144992;683;6002;-86
2021/07/17 04:11:39;;;;;;;11.05;4.62;;;;;;;29.24;39.04;100319.66;144992;675;6002;-85
2021/07/17 04:14:06;;;;;;;9.50;4.32;;;;;;;29.27;39.13;100317.69;144992;566;6002;-87
2021/07/17 04:16:33;;;;;;;6.22;3.42;;;;;;;29.27;38.84;100312.34;144992;595;6002;-86
2021/07/17 04:18:59;;;;;;;6.97;3.80;;;;;;;29.30;38.84;100319.31;144992;608;6002;-86
2021/07/17 04:21:26;;;;;;;7.82;3.80;;;;;;;29.31;38.99;100321.91;144992;641;6002;-87
2021/07/17 04:23:53;;;;;;;7.35;4.03;;;;;;;29.33;38.82;100326.31;144992;595;6002;-87
2021/07/17 04:26:32;;;;;;;6.55;3.87;;;;;;;29.39;38.95;100331.34;144992;566;6002;-87
2021/07/17 04:29:19;;;;;;;6.68;4.00;;;;;;;29.49;38.72;100324.50;144990;566;6002;-88
2021/07/17 04:31:48;;;;;;;5.82;3.75;;;;;;;29.59;38.17;100332.88;144992;577;6002;-87
2021/07/17 04:34:15;;;;;;;8.75;3.78;;;;;;;29.59;38.61;100324.87;144992;577;6002;-87
2021/07/17 04:36:41;;;;;;;7.50;3.87;;;;;;;29.59;38.39;100324.87;144992;571;6002;-87
2021/07/17 04:39:08;;;;;;;9.68;3.83;;;;;;;29.60;38.26;100323.91;144992;563;6002;-86
2021/07/17 04:41:38;;;;;;;6.68;3.80;;;;;;;29.61;37.96;100331.00;144992;582;6002;-86
2021/07/17 04:44:04;;;;;;;7.22;3.90;;;;;;;29.61;37.99;100334.53;144992;634;6002;-85
2021/07/17 04:46:31;;;;;;;12.18;3.70;;;;;;;29.63;38.34;100332.63;144992;566;6002;-88
2021/07/17 04:48:57;;;;;;;10.80;4.15;;;;;;;29.65;37.98;100336.09;144992;573;6002;-87
2021/07/17 04:51:24;;;;;;;8.68;3.83;;;;;;;29.69;38.16;100334.09;144992;577;6002;-88
2021/07/17 04:53:50;;;;;;;5.93;3.67;;;;;;;29.72;38.01;100341.97;144992;673;6016;-86
2021/07/17 04:56:17;;;;;;;7.15;3.72;;;;;;;29.76;38.15;100337.28;144992;578;6002;-86
2021/07/17 04:58:43;;;;;;;5.87;3.60;;;;;;;29.77;37.80;100334.53;144992;581;6002;-87
2021/07/17 05:01:10;;;;;;;7.25;3.45;;;;;;;29.81;38.56;100340.59;144992;577;6002;-87
2021/07/17 05:03:36;;;;;;;8.98;3.78;;;;;;;29.85;38.07;100339.50;144992;720;6002;-87
2021/07/17 05:06:03;;;;;;;13.50;3.92;;;;;;;29.88;38.72;100338.47;144992;670;6002;-88
2021/07/17 05:08:30;;;;;;;10.40;3.67;;;;;;;29.90;38.42;100333.88;144992;576;6002;-86
2021/07/17 05:10:56;;;;;;;10.43;3.87;;;;;;;29.94;37.92;100332.72;144992;641;6002;-86
2021/07/17 05:13:24;;;;;;;7.60;3.65;;;;;;;29.97;38.08;100341.47;144992;631;6002;-86
2021/07/17 05:15:50;;;;;;;8.52;3.65;;;;;;;30.00;37.95;100322.56;144992;589;6002;-86
2021/07/17 05:18:17;;;;;;;10.30;4.03;;;;;;;30.06;38.64;100334.72;144992;649;6002;-88
2021/07/17 05:20:44;;;;;;;7.68;3.85;;;;;;;30.12;38.23;100330.81;144992;566;6002;-88
2021/07/17 05:23:11;;;;;;;9.05;3.83;;;;;;;30.17;38.68;100334.09;144992;654;6002;-86
2021/07/17 05:25:39;;;;;;;10.05;4.05;;;;;;;30.23;37.99;100338.25;144992;604;6002;-87
2021/07/17 05:28:06;;;;;;;6.95;4.10;;;;;;;30.26;37.92;100332.69;144992;566;6002;-87
2021/07/17 05:30:32;;;;;;;9.85;3.60;;;;;;;30.31;38.52;100342.16;144992;574;6002;-86
2021/07/17 05:33:00;;;;;;;6.30;3.80;;;;;;;30.38;38.08;100340.91;144991;657;6002;-87
2021/07/17 05:35:30;;;;;;;6.90;4.20;;;;;;;30.46;38.71;100342.25;144992;564;6002;-86
2021/07/17 05:38:06;;;;;;;8.15;4.20;;;;;;;30.55;37.91;100345.25;144992;570;6002;-87
2021/07/17 05:40:37;;;;;;;8.35;3.97;;;;;;;30.67;37.53;100330.25;144992;569;6002;-87
2021/07/17 05:43:03;;;;;;;8.00;3.95;;;;;;;30.80;37.63;100334.84;144992;707;6002;-87
2021/07/17 05:45:30;;;;;;;11.43;4.40;;;;;;;30.90;37.83;100341.38;144992;582;6002;-86
2021/07/17 05:47:56;;;;;;;9.35;4.65;;;;;;;30.89;37.21;100347.69;144992;645;6002;-84
2021/07/17 05:50:23;;;;;;;10.30;4.80;;;;;;;30.87;37.88;100344.25;144992;571;6002;-85
2021/07/17 05:52:49;;;;;;;12.60;5.53;;;;;;;30.88;37.89;100340.62;144992;583;6002;-86
2021/07/17 05:55:16;;;;;;;15.15;5.65;;;;;;;30.86;37.67;100347.88;144991;593;6002;-82
2021/07/17 05:57:42;;;;;;;10.07;5.20;;;;;;;30.89;37.22;100337.84;144992;564;6002;-85
2021/07/17 06:00:10;;;;;;;13.15;4.90;;;;;;;30.81;37.76;100336.59;144992;641;6002;-85
2021/07/17 06:02:37;;;;;;;9.32;4.85;;;;;;;30.58;38.29;100341.53;144992;566;6002;-85
2021/07/17 06:05:04;;;;;;;9.70;4.40;;;;;;;30.60;38.97;100336.06;144992;569;6011;-85
2021/07/17 06:07:30;;;;;;;10.43;4.20;;;;;;;30.50;38.19;100338.44;144992;654;6002;-88
2021/07/17 06:09:57;;;;;;;11.77;4.53;;;;;;;30.55;39.05;100339.03;144992;587;6002;-86
2021/07/17 06:12:23;;;;;;;8.98;4.45;;;;;;;30.34;39.36;100339.31;144992;699;6002;-86
2021/07/17 06:14:50;;;;;;;10.13;4.40;;;;;;;30.32;39.06;100335.87;144992;570;6002;-87
2021/07/17 06:17:16;;;;;;;8.90;3.95;;;;;;;30.35;38.93;100333.03;144992;591;6002;-85
2021/07/17 06:19:43;;;;;;;8.45;4.18;;;;;;;30.24;39.59;100332.75;144992;587;6002;-84
2021/07/17 06:22:10;;;;;;;8.93;4.05;;;;;;;30.28;40.47;100333.47;144992;564;6002;-86
2021/07/17 06:24:38;;;;;;;10.50;4.55;;;;;;;30.17;40.38;100331.41;144991;609;6002;-86
2021/07/17 06:27:05;;;;;;;8.25;4.22;;;;;;;30.06;42.36;100336.53;144992;576;6002;-85
2021/07/17 06:29:32;;;;;;;13.48;4.22;;;;;;;30.20;41.21;100333.91;144992;638;6002;-86
2021/07/17 06:31:58;;;;;;;10.80;4.62;;;;;;;30.11;43.62;100337.97;144992;582;6002;-86
2021/07/17 06:34:25;;;;;;;11.68;4.57;;;;;;;30.15;43.15;100336.84;144992;584;6002;-87
2021/07/17 06:36:52;;;;;;;7.80;3.83;;;;;;;30.18;41.81;100334.00;144992;617;6002;-85
2021/07/17 06:39:18;;;;;;;6.43;4.20;;;;;;;30.23;41.98;100336.41;144992;578;6002;-86
2021/07/17 06:41:45;;;;;;;11.70;4.00;;;;;;;30.22;41.91;100334.69;144992;583;6002;-85
2021/07/17 06:44:11;;;;;;;9.60;4.10;;;;;;;30.25;42.61;100334.50;144991;572;6002;-86
2021/07/17 06:46:37;;;;;;;10.35;4.35;;;;;;;30.24;42.68;100338.13;144992;576;6002;-87
2021/07/17 06:49:04;;;;;;;6.60;3.78;;;;;;;30.12;42.18;100337.03;144992;571;6002;-87
2021/07/17 06:51:34;;;;;;;10.50;4.18;;;;;;;30.22;42.23;100334.69;144992;597;6002;-86
2021/07/17 06:54:01;;;;;;;7.50;3.80;;;;;;;30.26;42.20;100341.59;144992;589;6002;-89
2021/07/17 06:56:28;;;;;;;9.57;4.05;;;;;;;30.20;42.44;100325.88;144993;705;6002;-85
2021/07/17 06:58:54;;;;;;;5.87;3.75;;;;;;;30.08;42.90;100342.66;144992;610;6002;-86
2021/07/17 07:01:21;;;;;;;6.93;4.05;;;;;;;30.11;42.23;100335.28;144993;619;6002;-87
2021/07/17 07:03:51;;;;;;;9.57;4.12;;;;;;;30.18;42.71;100331.31;144993;612;6003;-85
2021/07/17 07:06:18;;;;;;;7.05;3.65;;;;;;;30.28;42.94;100330.78;144993;580;6002;-86
2021/07/17 07:08:44;;;;;;;7.30;3.92;;;;;;;30.28;44.44;100347.72;144993;613;6002;-86
2021/07/17 07:11:11;;;;;;;5.55;3.75;;;;;;;30.28;44.71;100334.31;144993;571;6002;-87
2021/07/17 07:13:38;;;;;;;9.30;3.85;;;;;;;30.24;44.30;100338.13;144993;567;6002;-85
2021/07/17 07:16:04;;;;;;;9.73;3.80;;;;;;;30.29;44.06;100333.38;144993;597;6002;-85
2021/07/17 07:18:31;;;;;;;8.57;3.50;;;;;;;30.19;44.58;100333.06;144993;594;6002;-87
2021/07/17 07:20:57;;;;;;;7.07;4.35;;;;;;;30.22;43.54;100326.66;144993;582;6002;-87
2021/07/17 07:23:24;;;;;;;6.65;3.58;;;;;;;30.15;43.74;100326.16;144993;596;6002;-86
2021/07/17 07:25:50;;;;;;;8.52;3.67;;;;;;;30.19;43.54;100322.34;144992;594;6002;-85
2021/07/17 07:28:17;;;;;;;5.72;3.33;;;;;;;30.17;44.30;100321.56;144992;588;6002;-85
2021/07/17 07:30:43;;;;;;;9.57;4.30;;;;;;;30.22;43.61;100323.97;144992;564;6002;-85
2021/07/17 07:33:11;;;;;;;5.80;3.40;;;;;;;30.13;45.01;100317.34;144992;685;6002;-87
2021/07/17 07:35:39;;;;;;;8.40;3.53;;;;;;;30.17;44.37;100312.69;144992;622;6002;-87
2021/07/17 07:38:06;;;;;;;8.05;3.40;;;;;;;30.21;43.90;100311.56;144991;619;6002;-86
2021/07/17 07:40:32;;;;;;;8.32;3.65;;;;;;;30.16;44.65;100311.81;144993;586;6002;-86
2021/07/17 07:42:59;;;;;;;7.82;3.50;;;;;;;30.35;44.54;100310.72;144993;582;6002;-85
2021/07/17 07:45:25;;;;;;;6.18;3.50;;;;;;;30.28;44.74;100310.22;144993;602;6002;-86
2021/07/17 07:47:56;;;;;;;6.07;3.60;;;;;;;30.29;44.72;100308.41;144993;620;6002;-87
2021/07/17 07:50:23;;;;;;;10.10;3.37;;;;;;;30.41;44.06;100305.03;144993;575;6002;-86
2021/07/17 07:52:50;;;;;;;5.93;3.33;;;;;;;30.44;43.41;100298.66;144992;646;6002;-85
2021/07/17 07:55:17;;;;;;;16.40;3.55;;;;;;;30.57;42.91;100305.81;144993;600;6002;-86
2021/07/17 07:57:46;;;;;;;8.20;3.67;;;;;;;30.54;43.50;100299.81;144993;576;6002;-88
2021/07/17 08:00:15;;;;;;;6.12;3.55;;;;;;;30.63;42.49;100309.97;144993;585;6002;-87
2021/07/17 08:02:41;;;;;;;6.18;3.30;;;;;;;30.59;42.78;100297.69;144993;582;6002;-85
2021/07/17 08:05:09;;;;;;;4.80;3.42;;;;;;;30.75;42.18;100301.19;144993;610;6002;-85
2021/07/17 08:07:35;;;;;;;5.37;3.58;;;;;;;30.80;42.85;100313.41;144993;575;6002;-88
2021/07/17 08:10:03;;;;;;;10.20;3.62;;;;;;;30.89;43.87;100304.81;144992;669;6002;-86
2021/07/17 08:12:30;;;;;;;7.87;3.62;;;;;;;30.75;45.37;100309.22;144993;618;6002;-85
2021/07/17 08:14:56;;;;;;;7.47;3.72;;;;;;;30.74;45.84;100315.53;144993;612;6002;-88
2021/07/17 08:17:23;;;;;;;5.80;3.78;;;;;;;30.81;46.34;100307.12;144993;619;6002;-85
2021/07/17 08:19:49;;;;;;;5.80;3.40;;;;;;;30.75;45.98;100303.88;144993;590;6002;-85
2021/07/17 08:22:16;;;;;;;7.85;3.50;;;;;;;30.79;45.39;100298.31;144993;599;6002;-85
2021/07/17 08:24:43;;;;;;;10.30;3.72;;;;;;;30.76;46.90;100315.44;144993;569;6002;-88
2021/07/17 08:27:14;;;;;;;7.72;3.17;;;;;;;30.86;45.76;100300.53;144993;622;6002;-85
2021/07/17 08:29:41;;;;;;;6.57;3.58;;;;;;;30.98;47.11;100312.31;144993;583;6002;-86
2021/07/17 08:32:13;;;;;;;10.57;3.70;;;;;;;31.24;45.89;100307.12;144993;650;6002;-86
2021/07/17 08:34:40;;;;;;;7.10;3.70;;;;;;;31.19;46.18;100306.56;144994;590;5002;-87
2021/07/17 08:37:06;;;;;;;4.37;3.60;;;;;;;30.98;46.85;100308.78;144994;611;5002;-87
2021/07/17 08:39:33;;;;;;;5.87;3.30;;;;;;;30.97;46.57;100297.19;144994;571;5002;-86
2021/07/17 08:42:03;;;;;;;10.65;3.25;;;;;;;31.04;46.79;100295.88;144994;571;5002;-86
2021/07/17 08:44:31;;;;;;;5.57;3.35;;;;;;;31.00;47.86;100302.38;144994;628;5002;-86
2021/07/17 08:46:59;;;;;;;8.25;3.80;;;;;;;30.97;47.72;100297.19;144994;594;5002;-84
2021/07/17 08:49:30;;;;;;;6.95;3.40;;;;;;;31.10;47.94;100297.28;144994;610;5002;-88
2021/07/17 08:52:03;;;;;;;7.55;3.58;;;;;;;30.90;47.74;100290.47;144994;672;5002;-88
2021/07/17 08:54:31;;;;;;;7.03;3.55;;;;;;;31.18;48.00;100297.69;144994;574;5002;-87
2021/07/17 08:56:58;;;;;;;9.55;3.20;;;;;;;31.09;48.89;100307.16;144994;569;5002;-89
2021/07/17 08:59:25;;;;;;;10.80;3.53;;;;;;;31.08;49.00;100315.28;144994;570;5002;-87
2021/07/17 09:01:52;;;;;;;8.85;3.62;;;;;;;30.98;49.22;100312.31;144994;573;5002;-84
2021/07/17 09:04:25;;;;;;;12.50;3.50;;;;;;;31.12;48.50;100306.09;144994;697;5002;-87
2021/07/17 09:06:51;;;;;;;7.55;3.60;;;;;;;31.00;49.04;100302.38;144993;589;6007;-86
2021/07/17 09:09:36;;;;;;;11.95;3.33;;;;;;;30.97;49.22;100304.38;144994;626;5002;-86
2021/07/17 09:12:19;;;;;;;8.95;3.33;;;;;;;30.92;49.71;100305.47;144994;608;5002;-87
2021/07/17 09:14:46;;;;;;;7.18;4.12;;;;;;;30.93;49.37;100301.84;144993;564;5002;-84
2021/07/17 09:17:27;;;;;;;8.68;3.80;;;;;;;30.93;50.63;100301.84;144994;615;5002;-87
2021/07/17 09:20:01;;;;;;;8.77;3.85;;;;;;;30.99;49.57;100287.25;144994;629;5002;-86
2021/07/17 09:22:35;;;;;;;12.77;4.37;;;;;;;31.01;49.82;100292.53;144994;617;5002;-88
2021/07/17 09:25:15;;;;;;;7.85;3.75;;;;;;;31.07;50.11;100290.31;144994;594;5002;-87
2021/07/17 09:27:42;;;;;;;8.10;3.80;;;;;;;30.97;50.68;100285.63;144994;564;5002;-86
2021/07/17 09:30:33;;;;;;;6.70;3.75;;;;;;;30.92;51.08;100299.28;144994;609;5002;-89
2021/07/17 09:33:04;;;;;;;8.68;3.83;;;;;;;31.03;50.76;100296.81;144994;592;5004;-85
2021/07/17 09:35:33;;;;;;;7.70;3.47;;;;;;;30.92;50.27;100302.81;144994;587;5004;-86
2021/07/17 09:38:01;;;;;;;9.35;3.40;;;;;;;30.91;50.90;100301.09;144994;619;5004;-89
2021/07/17 09:40:51;;;;;;;5.70;3.25;;;;;;;30.86;51.52;100291.59;144994;567;5004;-86
2021/07/17 09:43:44;;;;;;;6.53;3.05;;;;;;;30.96;49.83;100287.44;144994;624;5004;-89
2021/07/17 09:46:25;;;;;;;9.90;3.10;;;;;;;31.01;49.71;100290.69;144994;588;5004;-89
2021/07/17 09:49:03;;;;;;;8.85;3.25;;;;;;;31.17;50.48;100300.47;144994;562;5004;-89
2021/07/17 09:51:31;;;;;;;7.45;3.17;;;;;;;31.11;50.41;100288.28;144994;579;5004;-87
2021/07/17 09:54:03;;;;;;;10.57;3.53;;;;;;;31.09;50.47;100293.75;144994;593;5004;-86
2021/07/17 09:56:40;;;;;;;9.27;4.25;;;;;;;31.10;50.89;100287.44;144994;585;5004;-86
2021/07/17 09:59:13;;;;;;;12.15;3.50;;;;;;;31.20;51.51;100286.88;144994;686;5004;-87
2021/07/17 10:01:40;;;;;;;6.82;3.87;;;;;;;31.31;51.12;100284.34;144994;584;5004;-87
2021/07/17 10:04:09;;;;;;;7.03;3.80;;;;;;;31.36;50.81;100286.75;144994;586;5004;-89
2021/07/17 10:06:59;;;;;;;9.27;3.83;;;;;;;31.44;50.76;100285.28;144994;605;5004;-85
2021/07/17 10:09:31;;;;;;;7.75;4.00;;;;;;;31.34;51.42;100286.84;144994;571;5004;-90
2021/07/17 10:12:06;;;;;;;8.63;5.00;;;;;;;31.31;53.77;100288.84;144994;577;5004;-86
2021/07/17 10:14:43;;;;;;;9.82;5.22;;;;;;;31.50;52.67;100280.47;144994;651;5004;-87
2021/07/17 10:17:16;;;;;;;7.18;4.12;;;;;;;31.45;52.13;100276.28;144994;595;5004;-87
2021/07/17 10:19:43;;;;;;;7.43;3.70;;;;;;;31.68;51.54;100270.41;144994;573;5004;-87
2021/07/17 10:22:12;;;;;;;5.75;3.60;;;;;;;31.79;51.27;100276.78;144994;645;5004;-85
2021/07/17 10:24:39;;;;;;;6.37;3.78;;;;;;;31.80;51.28;100275.81;144994;617;5004;-87
2021/07/17 10:27:06;;;;;;;7.68;3.42;;;;;;;31.86;51.07;100273.69;144994;704;5004;-86
2021/07/17 10:29:32;;;;;;;9.98;3.80;;;;;;;31.61;51.55;100265.44;144994;613;5004;-87
2021/07/17 10:32:00;;;;;;;9.43;3.87;;;;;;;31.64;50.80;100267.03;144994;626;5004;-87
2021/07/17 10:34:26;;;;;;;11.73;3.80;;;;;;;31.58;51.95;100272.84;144994;624;5004;-86
2021/07/17 10:37:11;;;;;;;7.12;3.50;;;;;;;31.64;50.82;100265.25;144994;572;5004;-87
2021/07/17 10:39:40;;;;;;;;;;;;;;;31.76;50.65;100260.03;144998;911;5004;-91
2021/07/17 10:42:17;;;;;;;8.45;3.15;;;;;;;31.63;51.38;100259.97;144998;592;5000;-90
2021/07/17 10:44:48;;;;;;;5.93;3.30;;;;;;;31.46;52.31;100267.25;144994;587;5004;-87
2021/07/17 10:47:16;;;;;;;8.55;3.80;;;;;;;31.60;51.06;100252.12;144994;590;5004;-88
2021/07/17 10:49:48;;;;;;;12.15;3.72;;;;;;;31.40;50.04;100251.59;144994;588;5004;-87
2021/07/17 10:52:15;;;;;;;10.88;3.28;;;;;;;31.49;50.59;100260.00;144993;573;5004;-91
2021/07/17 10:54:43;;;;;;;7.57;3.03;;;;;;;31.54;50.68;100241.81;144993;594;5002;-90
2021/07/17 10:57:26;;;;;;;11.95;3.62;;;;;;;31.44;51.21;100265.66;144994;607;5002;-87
2021/07/17 10:59:52;;;;;;;5.90;3.47;;;;;;;31.28;51.51;100249.69;144994;607;5002;-85
2021/07/17 11:02:22;;;;;;;7.97;3.58;;;;;;;31.35;51.91;100247.47;144994;598;5002;-86
2021/07/17 11:04:59;;;;;;;5.43;3.35;;;;;;;31.57;50.53;100246.97;144994;590;5002;-90
2021/07/17 11:07:35;;;;;;;8.50;3.50;;;;;;;31.70;50.69;100250.53;144994;618;5002;-85
2021/07/17 11:10:12;;;;;;;10.38;3.60;;;;;;;31.57;51.09;100234.41;144994;569;5005;-87
2021/07/17 11:12:50;;;;;;;10.48;3.72;;;;;;;31.53;51.30;100230.22;144994;654;5004;-83
2021/07/17 11:15:40;;;;;;;10.93;3.80;;;;;;;31.54;51.81;100239.12;144994;580;5004;-90
2021/07/17 11:18:19;;;;;;;11.60;4.03;;;;;;;31.51;53.07;100233.91;144994;583;5002;-84
2021/07/17 11:20:46;;;;;;;10.15;4.07;;;;;;;31.58;51.83;100236.13;144994;600;5002;-86
2021/07/17 11:23:18;;;;;;;7.82;3.47;;;;;;;31.62;51.54;100234.94;144994;582;5002;-90
2021/07/17 11:25:59;;;;;;;6.82;3.15;;;;;;;31.58;52.32;100238.81;144994;671;5002;-88
2021/07/17 11:28:52;;;;;;;7.37;3.37;;;;;;;31.57;52.23;100231.72;144994;564;5002;-85
2021/07/17 11:31:50;;;;;;;10.80;3.90;;;;;;;31.58;52.11;100229.91;144994;656;5004;-84
2021/07/17 11:34:32;;;;;;;10.60;3.30;;;;;;;32.13;51.20;100234.25;144994;575;5002;-89
2021/07/17 11:37:02;;;;;;;4.65;3.28;;;;;;;33.85;47.68;100227.47;144994;570;5002;-85
2021/07/17 11:39:33;;;;;;;9.80;3.70;;;;;;;35.62;43.99;100220.72;144994;669;5002;-85
2021/07/17 11:42:05;;;;;;;6.47;3.20;;;;;;;36.90;42.12;100228.72;144994;569;5002;-87